Time;durP1;ratioP1;P1;durP2;ratioP2;P2;SDS_P1;SDS_P2;PMS_P1;PMS_P2;Temp;Humidity;BMP_temperature;BMP_pressure;BME280_temperature;BME280_humidity;BME280_pressure;Samples;Min_cycle;Max_cycle;Signal;HPM_P1;HPM_P2
2022/11/08 00:02:09;;;;;;;0.30;0.30;;;;;;;;;;7380474;19;20507;-70
2022/11/08 00:04:35;;;;;;;0.37;0.37;;;;;;;;;;7375212;19;20193;-69
2022/11/08 00:15:12;;;;;;;0.30;0.30;;;;;;;;;;7375893;19;20588;-73
2022/11/08 00:17:37;;;;;;;0.30;0.30;;;;;;;;;;7365440;19;20102;-69
2022/11/08 00:20:04;;;;;;;0.57;0.57;;;;;;;;;;7375742;19;20117;-74
2022/11/08 00:22:30;;;;;;;0.20;0.20;;;;;;;;;;7383386;19;20130;-71
2022/11/08 00:24:55;;;;;;;0.30;0.30;;;;;;;;;;7387824;19;20499;-71
2022/11/08 00:27:22;;;;;;;0.40;0.40;;;;;;;;;;7385327;19;20125;-70
2022/11/08 00:29:47;;;;;;;0.40;0.40;;;;;;;;;;7384056;19;20564;-72
2022/11/08 00:32:18;;;;;;;0.37;0.37;;;;;;;;;;7386710;19;20485;-70
2022/11/08 00:34:43;;;;;;;0.30;0.30;;;;;;;;;;7387629;19;20541;-71
2022/11/08 00:37:09;;;;;;;0.40;0.40;;;;;;;;;;7390157;19;20106;-71
2022/11/08 00:39:35;;;;;;;0.20;0.20;;;;;;;;;;7383906;19;20109;-72
2022/11/08 00:42:00;;;;;;;0.20;0.20;;;;;;;;;;7382032;19;20129;-71
2022/11/08 00:44:25;;;;;;;0.30;0.30;;;;;;;;;;7384803;19;20101;-71
2022/11/08 00:46:51;;;;;;;0.30;0.30;;;;;;;;;;7382785;19;20128;-71
2022/11/08 00:49:17;;;;;;;0.40;0.40;;;;;;;;;;7387882;19;20599;-70
2022/11/08 00:51:42;;;;;;;0.30;0.30;;;;;;;;;;7384472;19;20146;-71
2022/11/08 00:54:09;;;;;;;0.30;0.30;;;;;;;;;;7385380;19;20133;-72
2022/11/08 00:56:34;;;;;;;0.40;0.40;;;;;;;;;;7378886;19;20144;-73
2022/11/08 00:59:00;;;;;;;0.37;0.37;;;;;;;;;;7380381;19;20452;-71
2022/11/08 01:01:25;;;;;;;0.77;0.57;;;;;;;;;;7386956;19;20117;-74
2022/11/08 01:03:51;;;;;;;1.00;0.60;;;;;;;;;;7385985;19;20101;-70
2022/11/08 01:06:19;;;;;;;0.30;0.30;;;;;;;;;;7387047;19;20156;-71
2022/11/08 01:08:45;;;;;;;0.20;0.20;;;;;;;;;;7387381;19;20124;-71
2022/11/08 01:11:19;;;;;;;0.53;0.53;;;;;;;;;;7387982;19;20184;-72
2022/11/08 01:13:45;;;;;;;0.30;0.30;;;;;;;;;;7379831;19;20105;-70
2022/11/08 01:16:13;;;;;;;0.53;0.53;;;;;;;;;;7380800;19;20148;-71
2022/11/08 01:18:39;;;;;;;0.93;0.93;;;;;;;;;;7382232;19;20121;-71
2022/11/08 01:21:04;;;;;;;0.60;0.50;;;;;;;;;;7386968;19;20101;-71
2022/11/08 01:23:30;;;;;;;0.30;0.30;;;;;;;;;;7382577;19;20117;-72
2022/11/08 01:25:55;;;;;;;0.30;0.30;;;;;;;;;;7385337;19;20935;-71
2022/11/08 01:28:20;;;;;;;0.40;0.40;;;;;;;;;;7387816;19;20589;-71
2022/11/08 01:30:46;;;;;;;0.30;0.30;;;;;;;;;;7381187;19;20109;-70
2022/11/08 01:33:12;;;;;;;0.20;0.20;;;;;;;;;;7380190;19;20148;-71
2022/11/08 01:35:38;;;;;;;0.40;0.40;;;;;;;;;;7374141;19;20516;-71
2022/11/08 01:38:04;;;;;;;0.50;0.50;;;;;;;;;;7375208;19;20117;-73
2022/11/08 01:40:30;;;;;;;0.20;0.20;;;;;;;;;;7380961;19;20508;-71
2022/11/08 01:42:56;;;;;;;0.20;0.20;;;;;;;;;;7378600;19;20110;-71
2022/11/08 01:45:59;;;;;;;0.43;0.43;;;;;;;;;;7382748;19;20163;-71
2022/11/08 01:48:25;;;;;;;1.23;1.13;;;;;;;;;;7374866;19;20125;-71
2022/11/08 01:50:51;;;;;;;0.30;0.30;;;;;;;;;;7366822;19;20602;-73
2022/11/08 01:53:16;;;;;;;0.47;0.47;;;;;;;;;;7380732;19;20115;-71
2022/11/08 01:55:41;;;;;;;0.30;0.30;;;;;;;;;;7376658;19;20568;-71
2022/11/08 01:58:11;;;;;;;0.30;0.30;;;;;;;;;;7374848;19;20495;-70
2022/11/08 02:00:37;;;;;;;0.20;0.20;;;;;;;;;;7376778;19;20117;-71
2022/11/08 02:03:04;;;;;;;0.40;0.40;;;;;;;;;;7374621;19;20674;-71
2022/11/08 02:05:30;;;;;;;0.30;0.30;;;;;;;;;;7377239;19;20479;-71
2022/11/08 02:08:09;;;;;;;0.37;0.37;;;;;;;;;;7374191;19;20120;-71
2022/11/08 02:10:39;;;;;;;0.20;0.20;;;;;;;;;;7373655;19;20113;-74
2022/11/08 02:13:08;;;;;;;0.30;0.30;;;;;;;;;;7376564;19;20101;-73
2022/11/08 02:15:34;;;;;;;0.40;0.40;;;;;;;;;;7369490;19;20129;-73
2022/11/08 02:18:00;;;;;;;0.47;0.47;;;;;;;;;;7367929;19;20113;-71
2022/11/08 02:20:26;;;;;;;0.53;0.53;;;;;;;;;;7380304;19;20129;-71
2022/11/08 02:22:58;;;;;;;0.20;0.20;;;;;;;;;;7373616;19;20169;-70
2022/11/08 02:25:23;;;;;;;0.23;0.23;;;;;;;;;;7373833;19;20607;-70
2022/11/08 02:27:48;;;;;;;0.97;0.90;;;;;;;;;;7377289;19;20125;-70
2022/11/08 02:30:14;;;;;;;2.97;0.40;;;;;;;;;;7381674;19;20590;-67
2022/11/08 02:32:40;;;;;;;0.97;0.57;;;;;;;;;;7382222;19;20109;-71
2022/11/08 02:35:09;;;;;;;0.20;0.20;;;;;;;;;;7385826;19;20122;-71
2022/11/08 02:37:34;;;;;;;0.30;0.30;;;;;;;;;;7380900;19;20184;-73
2022/11/08 02:40:00;;;;;;;0.40;0.40;;;;;;;;;;7384408;19;20118;-70
2022/11/08 02:42:25;;;;;;;0.30;0.30;;;;;;;;;;7382153;19;20185;-70
2022/11/08 02:44:50;;;;;;;0.30;0.30;;;;;;;;;;7384765;19;20473;-70
2022/11/08 02:47:16;;;;;;;0.50;0.50;;;;;;;;;;7382584;19;20101;-70
2022/11/08 02:49:41;;;;;;;2.73;0.90;;;;;;;;;;7381070;19;20133;-70
2022/11/08 02:52:06;;;;;;;0.20;0.20;;;;;;;;;;7384172;19;20106;-71
2022/11/08 02:54:32;;;;;;;0.43;0.43;;;;;;;;;;7384912;19;20559;-71
2022/11/08 02:56:57;;;;;;;0.40;0.40;;;;;;;;;;7382706;19;20697;-71
2022/11/08 02:59:22;;;;;;;0.40;0.40;;;;;;;;;;7379079;19;20109;-70
2022/11/08 03:01:47;;;;;;;0.30;0.30;;;;;;;;;;7378273;19;20109;-71
2022/11/08 03:04:13;;;;;;;0.27;0.27;;;;;;;;;;7384639;19;20499;-73
2022/11/08 03:06:38;;;;;;;0.30;0.30;;;;;;;;;;7382390;19;20571;-71
2022/11/08 03:09:04;;;;;;;0.23;0.23;;;;;;;;;;7384718;19;20129;-70
2022/11/08 03:11:29;;;;;;;0.20;0.20;;;;;;;;;;7380766;19;20504;-73
2022/11/08 03:13:55;;;;;;;1.13;0.50;;;;;;;;;;7383904;19;20637;-71
2022/11/08 03:16:20;;;;;;;0.30;0.30;;;;;;;;;;7378313;19;20113;-71
2022/11/08 03:18:45;;;;;;;0.30;0.30;;;;;;;;;;7383811;19;20121;-70
2022/11/08 03:21:10;;;;;;;0.20;0.20;;;;;;;;;;7381572;19;20105;-70
2022/11/08 03:23:36;;;;;;;0.20;0.20;;;;;;;;;;7390582;19;20105;-70
2022/11/08 03:26:02;;;;;;;0.30;0.30;;;;;;;;;;7384380;19;20208;-71
2022/11/08 03:28:27;;;;;;;0.30;0.30;;;;;;;;;;7391221;19;20511;-71
2022/11/08 03:30:53;;;;;;;0.40;0.30;;;;;;;;;;7389218;19;20113;-72
2022/11/08 03:33:19;;;;;;;0.20;0.20;;;;;;;;;;7380572;19;20631;-70
2022/11/08 03:35:45;;;;;;;0.23;0.23;;;;;;;;;;7382270;19;20128;-70
2022/11/08 03:38:10;;;;;;;0.30;0.30;;;;;;;;;;7391427;19;20105;-70
2022/11/08 03:40:35;;;;;;;0.30;0.30;;;;;;;;;;7387945;19;20136;-70
2022/11/08 03:43:01;;;;;;;0.20;0.20;;;;;;;;;;7389271;19;20098;-70
2022/11/08 03:45:26;;;;;;;0.30;0.30;;;;;;;;;;7388618;19;20152;-70
2022/11/08 03:47:51;;;;;;;0.30;0.30;;;;;;;;;;7385112;19;20125;-70
2022/11/08 03:50:17;;;;;;;0.80;0.80;;;;;;;;;;7380810;19;20113;-71
2022/11/08 03:52:50;;;;;;;0.60;0.60;;;;;;;;;;7384354;19;20166;-70
2022/11/08 03:55:17;;;;;;;0.20;0.20;;;;;;;;;;7383587;19;20485;-70
2022/11/08 03:57:44;;;;;;;0.30;0.30;;;;;;;;;;7383424;19;20437;-70
2022/11/08 04:00:10;;;;;;;0.30;0.30;;;;;;;;;;7387859;19;20644;-72
2022/11/08 04:02:36;;;;;;;0.30;0.30;;;;;;;;;;7385923;19;20119;-71
2022/11/08 04:05:01;;;;;;;0.30;0.30;;;;;;;;;;7389172;19;20489;-71
2022/11/08 04:07:27;;;;;;;0.20;0.20;;;;;;;;;;7391490;19;20109;-70
2022/11/08 04:09:55;;;;;;;0.30;0.30;;;;;;;;;;7390365;19;20113;-71
2022/11/08 04:15:14;;;;;;;0.50;0.50;;;;;;;;;;7389372;19;20209;-71
2022/11/08 04:23:09;;;;;;;0.27;0.27;;;;;;;;;;7386813;19;20638;-71
2022/11/08 04:25:34;;;;;;;0.30;0.30;;;;;;;;;;7389771;19;20117;-73
2022/11/08 04:28:00;;;;;;;0.40;0.40;;;;;;;;;;7388703;19;20137;-70
2022/11/08 04:30:25;;;;;;;0.40;0.40;;;;;;;;;;7389450;19;20555;-71
2022/11/08 04:32:50;;;;;;;0.30;0.30;;;;;;;;;;7385066;19;20110;-71
2022/11/08 04:35:16;;;;;;;0.57;0.40;;;;;;;;;;7386519;19;20167;-70
2022/11/08 04:37:41;;;;;;;0.53;0.50;;;;;;;;;;7385338;19;20173;-70
2022/11/08 04:40:07;;;;;;;0.33;0.33;;;;;;;;;;7384563;19;20176;-70
2022/11/08 04:42:32;;;;;;;0.40;0.40;;;;;;;;;;7388144;19;20121;-70
2022/11/08 04:44:57;;;;;;;0.40;0.40;;;;;;;;;;7388553;19;20118;-70
2022/11/08 04:47:23;;;;;;;0.30;0.30;;;;;;;;;;7387484;19;20117;-70
2022/11/08 04:49:48;;;;;;;0.70;0.70;;;;;;;;;;7386148;19;20117;-73
2022/11/08 04:52:14;;;;;;;0.20;0.20;;;;;;;;;;7386509;19;20105;-71
2022/11/08 04:54:43;;;;;;;0.30;0.30;;;;;;;;;;7387447;19;20106;-70
2022/11/08 04:57:09;;;;;;;0.40;0.40;;;;;;;;;;7386524;19;20128;-70
2022/11/08 04:59:34;;;;;;;0.40;0.40;;;;;;;;;;7386840;19;20106;-70
2022/11/08 05:01:59;;;;;;;0.30;0.30;;;;;;;;;;7380651;19;20170;-71
2022/11/08 05:04:25;;;;;;;0.53;0.53;;;;;;;;;;7378399;19;20543;-70
2022/11/08 05:06:50;;;;;;;0.30;0.30;;;;;;;;;;7383503;19;20129;-70
2022/11/08 05:09:15;;;;;;;0.30;0.30;;;;;;;;;;7384838;19;20193;-70
2022/11/08 05:11:41;;;;;;;0.30;0.30;;;;;;;;;;7380462;19;20706;-71
2022/11/08 05:14:06;;;;;;;0.50;0.50;;;;;;;;;;7380411;19;20161;-70
2022/11/08 05:16:31;;;;;;;0.20;0.20;;;;;;;;;;7382955;19;20193;-70
2022/11/08 05:18:57;;;;;;;0.43;0.43;;;;;;;;;;7387528;19;20113;-73
2022/11/08 05:24:10;;;;;;;0.50;0.50;;;;;;;;;;7380155;19;20116;-71
2022/11/08 05:26:38;;;;;;;0.30;0.30;;;;;;;;;;7383476;19;20204;-71
2022/11/08 05:29:04;;;;;;;0.20;0.20;;;;;;;;;;7384525;19;20101;-70
2022/11/08 05:31:29;;;;;;;0.30;0.30;;;;;;;;;;7384055;19;20149;-71
2022/11/08 05:33:55;;;;;;;0.50;0.50;;;;;;;;;;7381377;19;20566;-70
2022/11/08 05:36:20;;;;;;;0.20;0.20;;;;;;;;;;7387241;19;20121;-70
2022/11/08 05:38:45;;;;;;;0.63;0.53;;;;;;;;;;7389219;19;20120;-70
2022/11/08 05:41:16;;;;;;;0.50;0.50;;;;;;;;;;7382341;19;20451;-71
2022/11/08 05:43:45;;;;;;;0.30;0.30;;;;;;;;;;7382196;19;20113;-72
2022/11/08 05:46:11;;;;;;;0.30;0.30;;;;;;;;;;7380552;19;20619;-73
2022/11/08 05:48:36;;;;;;;0.33;0.33;;;;;;;;;;7382480;19;20129;-73
2022/11/08 05:51:02;;;;;;;0.30;0.30;;;;;;;;;;7379527;19;20105;-71
2022/11/08 05:53:28;;;;;;;0.60;0.60;;;;;;;;;;7381733;19;20599;-71
2022/11/08 05:55:58;;;;;;;0.43;0.43;;;;;;;;;;7385512;19;20155;-73
2022/11/08 05:58:23;;;;;;;0.40;0.40;;;;;;;;;;7383107;19;20493;-70
2022/11/08 06:00:49;;;;;;;0.20;0.20;;;;;;;;;;7382272;19;20139;-73
2022/11/08 06:03:14;;;;;;;0.30;0.30;;;;;;;;;;7376194;19;20591;-72
2022/11/08 06:05:39;;;;;;;0.37;0.37;;;;;;;;;;7385854;19;20133;-71
2022/11/08 06:08:05;;;;;;;0.30;0.30;;;;;;;;;;7384768;19;20455;-71
2022/11/08 06:10:30;;;;;;;0.30;0.30;;;;;;;;;;7379309;19;20116;-70
2022/11/08 06:12:59;;;;;;;0.30;0.30;;;;;;;;;;7379527;19;20129;-69
2022/11/08 06:15:25;;;;;;;0.30;0.30;;;;;;;;;;7383987;19;20149;-70
2022/11/08 06:17:50;;;;;;;3.63;0.60;;;;;;;;;;7387197;19;20464;-70
2022/11/08 06:20:15;;;;;;;0.30;0.30;;;;;;;;;;7383801;19;20110;-72
2022/11/08 06:22:42;;;;;;;0.40;0.40;;;;;;;;;;7372265;19;20713;-70
2022/11/08 06:25:08;;;;;;;0.30;0.30;;;;;;;;;;7377473;19;20127;-69
2022/11/08 06:27:33;;;;;;;0.20;0.20;;;;;;;;;;7379891;19;20169;-70
2022/11/08 06:29:58;;;;;;;0.40;0.40;;;;;;;;;;7377850;19;20109;-70
2022/11/08 06:32:24;;;;;;;0.30;0.30;;;;;;;;;;7364041;19;20105;-70
2022/11/08 06:34:49;;;;;;;0.30;0.30;;;;;;;;;;7371080;19;20481;-71
2022/11/08 06:37:14;;;;;;;0.20;0.20;;;;;;;;;;7368667;19;20600;-70
2022/11/08 06:39:41;;;;;;;0.30;0.30;;;;;;;;;;7383520;19;20200;-70
2022/11/08 06:42:06;;;;;;;0.30;0.30;;;;;;;;;;7382341;19;20113;-70
2022/11/08 06:44:31;;;;;;;0.30;0.30;;;;;;;;;;7375255;19;20521;-71
2022/11/08 06:46:58;;;;;;;0.50;0.50;;;;;;;;;;7371375;19;20117;-72
2022/11/08 06:49:24;;;;;;;0.57;0.57;;;;;;;;;;7373895;19;20113;-72
2022/11/08 06:51:50;;;;;;;0.40;0.40;;;;;;;;;;7368598;19;20113;-71
2022/11/08 06:54:16;;;;;;;1.00;0.53;;;;;;;;;;7358735;19;20117;-70
2022/11/08 06:56:41;;;;;;;0.33;0.33;;;;;;;;;;7381745;19;20534;-70
2022/11/08 06:59:08;;;;;;;0.43;0.43;;;;;;;;;;7378528;19;20140;-72
2022/11/08 07:01:33;;;;;;;0.40;0.40;;;;;;;;;;7363203;19;20109;-70
2022/11/08 07:03:58;;;;;;;0.23;0.23;;;;;;;;;;7376925;19;20135;-71
2022/11/08 07:06:24;;;;;;;0.40;0.40;;;;;;;;;;7381686;19;20572;-70
2022/11/08 07:08:49;;;;;;;0.37;0.37;;;;;;;;;;7377455;19;20121;-72
2022/11/08 07:11:15;;;;;;;0.60;0.60;;;;;;;;;;7366393;19;20117;-70
2022/11/08 07:13:40;;;;;;;0.50;0.50;;;;;;;;;;7368323;19;20105;-70
2022/11/08 07:16:06;;;;;;;1.10;0.83;;;;;;;;;;7382081;19;20121;-71
2022/11/08 07:18:31;;;;;;;0.30;0.30;;;;;;;;;;7381865;19;20132;-70
2022/11/08 07:20:58;;;;;;;0.20;0.20;;;;;;;;;;7383130;19;20109;-71
2022/11/08 07:23:23;;;;;;;0.87;0.87;;;;;;;;;;7370202;19;20117;-70
2022/11/08 07:25:48;;;;;;;0.30;0.30;;;;;;;;;;7372150;19;20144;-73
2022/11/08 07:28:16;;;;;;;0.50;0.50;;;;;;;;;;7365906;19;20112;-71
2022/11/08 07:30:41;;;;;;;0.43;0.43;;;;;;;;;;7379434;19;20140;-71
2022/11/08 07:33:07;;;;;;;1.60;0.93;;;;;;;;;;7369037;19;20102;-71
2022/11/08 07:35:32;;;;;;;0.30;0.30;;;;;;;;;;7373418;19;20576;-71
2022/11/08 07:37:57;;;;;;;0.20;0.20;;;;;;;;;;7379829;19;20121;-72
2022/11/08 07:40:23;;;;;;;0.70;0.70;;;;;;;;;;7376171;19;20571;-70
2022/11/08 07:42:49;;;;;;;0.40;0.40;;;;;;;;;;7377743;19;20985;-71
2022/11/08 07:45:14;;;;;;;0.20;0.20;;;;;;;;;;7379001;19;20124;-72
2022/11/08 07:47:39;;;;;;;0.50;0.50;;;;;;;;;;7373343;19;20221;-74
2022/11/08 07:50:05;;;;;;;0.30;0.30;;;;;;;;;;7372733;19;20485;-71
2022/11/08 07:52:31;;;;;;;0.30;0.30;;;;;;;;;;7375520;19;20606;-73
2022/11/08 07:54:56;;;;;;;0.30;0.30;;;;;;;;;;7378744;19;20127;-71
2022/11/08 07:57:21;;;;;;;0.27;0.27;;;;;;;;;;7372726;19;20113;-73
2022/11/08 07:59:47;;;;;;;0.30;0.30;;;;;;;;;;7370984;19;20125;-71
2022/11/08 08:02:13;;;;;;;0.20;0.20;;;;;;;;;;7373197;19;20108;-71
2022/11/08 08:04:38;;;;;;;0.40;0.40;;;;;;;;;;7370843;19;20097;-74
2022/11/08 08:07:04;;;;;;;0.63;0.63;;;;;;;;;;7380570;19;20257;-71
2022/11/08 08:09:29;;;;;;;0.30;0.30;;;;;;;;;;7383709;19;20101;-71
2022/11/08 08:11:54;;;;;;;0.40;0.40;;;;;;;;;;7379995;19;20121;-74
2022/11/08 08:14:20;;;;;;;0.30;0.30;;;;;;;;;;7383794;19;20814;-71
2022/11/08 08:16:45;;;;;;;0.37;0.37;;;;;;;;;;7385399;19;20129;-71
2022/11/08 08:19:10;;;;;;;0.20;0.20;;;;;;;;;;7386960;19;20117;-71
2022/11/08 08:21:36;;;;;;;0.30;0.30;;;;;;;;;;7387093;19;20537;-71
2022/11/08 08:24:01;;;;;;;0.50;0.50;;;;;;;;;;7382550;19;20113;-71
2022/11/08 08:26:27;;;;;;;0.30;0.30;;;;;;;;;;7387986;19;20159;-71
2022/11/08 08:28:52;;;;;;;0.30;0.30;;;;;;;;;;7390149;19;20114;-71
2022/11/08 08:31:18;;;;;;;1.27;1.23;;;;;;;;;;7387756;19;20128;-74
2022/11/08 08:33:43;;;;;;;0.20;0.20;;;;;;;;;;7393033;19;20722;-71
2022/11/08 08:36:08;;;;;;;0.30;0.30;;;;;;;;;;7389592;19;20121;-71
2022/11/08 08:38:34;;;;;;;0.20;0.20;;;;;;;;;;7392199;19;20105;-74
2022/11/08 08:41:01;;;;;;;0.30;0.30;;;;;;;;;;7389702;19;20447;-71
2022/11/08 08:43:27;;;;;;;0.40;0.40;;;;;;;;;;7389741;19;20114;-71
2022/11/08 08:45:53;;;;;;;0.30;0.30;;;;;;;;;;7391402;19;20119;-71
2022/11/08 08:48:19;;;;;;;0.30;0.30;;;;;;;;;;7390851;19;20094;-71
2022/11/08 08:50:45;;;;;;;0.77;0.77;;;;;;;;;;7390730;19;20113;-71
2022/11/08 08:53:10;;;;;;;0.33;0.33;;;;;;;;;;7389266;19;20113;-71
2022/11/08 08:55:37;;;;;;;0.50;0.50;;;;;;;;;;7389465;19;20596;-71
2022/11/08 08:58:03;;;;;;;0.27;0.27;;;;;;;;;;7386519;19;20733;-71
2022/11/08 09:00:28;;;;;;;0.30;0.30;;;;;;;;;;7389764;19;20139;-71
2022/11/08 09:02:54;;;;;;;0.20;0.20;;;;;;;;;;7387162;19;20133;-70
2022/11/08 09:05:19;;;;;;;0.77;0.43;;;;;;;;;;7380821;19;20156;-71
2022/11/08 09:07:44;;;;;;;0.30;0.30;;;;;;;;;;7387094;19;20137;-72
2022/11/08 09:10:10;;;;;;;0.90;0.83;;;;;;;;;;7388445;19;20124;-71
2022/11/08 09:12:37;;;;;;;0.50;0.50;;;;;;;;;;7385237;19;20113;-70
2022/11/08 09:15:03;;;;;;;0.30;0.30;;;;;;;;;;7379204;19;20907;-70
2022/11/08 09:17:28;;;;;;;0.70;0.70;;;;;;;;;;7377074;19;20128;-70
2022/11/08 09:19:54;;;;;;;0.40;0.40;;;;;;;;;;7376674;19;20121;-71
2022/11/08 09:22:19;;;;;;;0.43;0.43;;;;;;;;;;7380680;19;20133;-74
2022/11/08 09:24:44;;;;;;;0.30;0.30;;;;;;;;;;7371908;19;20117;-70
2022/11/08 09:27:10;;;;;;;0.20;0.20;;;;;;;;;;7379525;19;20180;-71
2022/11/08 09:29:35;;;;;;;0.20;0.20;;;;;;;;;;7386140;19;20125;-72
2022/11/08 09:32:00;;;;;;;0.37;0.37;;;;;;;;;;7385100;19;20105;-71
2022/11/08 09:34:26;;;;;;;0.20;0.20;;;;;;;;;;7385746;19;20197;-69
2022/11/08 09:36:52;;;;;;;0.27;0.27;;;;;;;;;;7380261;19;20121;-70
2022/11/08 09:39:17;;;;;;;0.20;0.20;;;;;;;;;;7387051;19;20537;-69
2022/11/08 09:41:51;;;;;;;0.20;0.20;;;;;;;;;;7386637;19;20161;-69
2022/11/08 09:44:39;;;;;;;0.30;0.30;;;;;;;;;;7385928;19;20579;-69
2022/11/08 09:47:13;;;;;;;0.30;0.30;;;;;;;;;;7387228;19;20551;-69
2022/11/08 09:49:42;;;;;;;0.20;0.20;;;;;;;;;;7385923;19;20101;-69
2022/11/08 09:52:11;;;;;;;0.63;0.63;;;;;;;;;;7385767;19;20177;-69
2022/11/08 09:54:41;;;;;;;0.60;0.60;;;;;;;;;;7380275;19;20109;-73
2022/11/08 09:57:19;;;;;;;0.30;0.30;;;;;;;;;;7379434;19;20173;-72
2022/11/08 09:59:51;;;;;;;0.20;0.20;;;;;;;;;;7374844;19;20116;-69
2022/11/08 10:02:21;;;;;;;0.60;0.60;;;;;;;;;;7378051;19;20109;-69
2022/11/08 10:04:59;;;;;;;0.30;0.30;;;;;;;;;;7382315;19;20567;-70
2022/11/08 10:07:56;;;;;;;0.40;0.40;;;;;;;;;;7384736;19;20173;-69
2022/11/08 10:10:43;;;;;;;0.27;0.27;;;;;;;;;;7379666;19;20109;-70
2022/11/08 10:13:20;;;;;;;0.30;0.30;;;;;;;;;;7381778;19;20176;-69
2022/11/08 10:16:00;;;;;;;0.30;0.30;;;;;;;;;;7376608;19;20579;-69
2022/11/08 10:18:51;;;;;;;0.30;0.30;;;;;;;;;;7380742;19;20504;-71
2022/11/08 10:21:37;;;;;;;0.30;0.30;;;;;;;;;;7376155;19;20517;-72
2022/11/08 10:24:09;;;;;;;0.30;0.30;;;;;;;;;;7379513;19;20177;-72
2022/11/08 10:26:41;;;;;;;0.30;0.30;;;;;;;;;;7378006;19;20161;-71
2022/11/08 10:29:10;;;;;;;0.63;0.40;;;;;;;;;;7380318;19;20149;-69
2022/11/08 10:31:37;;;;;;;0.20;0.20;;;;;;;;;;7379983;19;20180;-69
2022/11/08 10:34:10;;;;;;;0.30;0.30;;;;;;;;;;7384712;19;20679;-69
2022/11/08 10:36:41;;;;;;;1.38;1.10;;;;;;;;;;7380955;19;20125;-70
2022/11/08 10:39:07;;;;;;;0.30;0.30;;;;;;;;;;7381695;19;20109;-69
2022/11/08 10:41:39;;;;;;;0.43;0.43;;;;;;;;;;7377137;19;20116;-69
2022/11/08 10:44:09;;;;;;;0.30;0.30;;;;;;;;;;7380158;19;20120;-70
2022/11/08 10:46:52;;;;;;;0.70;0.70;;;;;;;;;;7374961;19;20124;-72
2022/11/08 10:49:30;;;;;;;0.32;0.32;;;;;;;;;;7380111;19;20112;-72
2022/11/08 10:52:01;;;;;;;0.30;0.30;;;;;;;;;;7374957;19;20109;-69
2022/11/08 10:54:49;;;;;;;0.43;0.43;;;;;;;;;;7380833;19;20140;-69
2022/11/08 10:57:36;;;;;;;0.30;0.30;;;;;;;;;;7379247;19;20117;-69
2022/11/08 11:00:15;;;;;;;0.20;0.20;;;;;;;;;;7377252;19;20109;-69
2022/11/08 11:02:41;;;;;;;0.20;0.20;;;;;;;;;;7379233;19;20109;-71
2022/11/08 11:05:34;;;;;;;0.40;0.40;;;;;;;;;;7378584;19;20580;-69
2022/11/08 11:08:02;;;;;;;0.70;0.70;;;;;;;;;;7378888;19;20680;-69
2022/11/08 11:10:39;;;;;;;0.30;0.30;;;;;;;;;;7381886;19;20217;-70
2022/11/08 11:13:28;;;;;;;0.30;0.30;;;;;;;;;;7377378;19;20133;-70
2022/11/08 11:15:56;;;;;;;0.30;0.30;;;;;;;;;;7378401;19;20197;-70
2022/11/08 11:18:28;;;;;;;0.30;0.30;;;;;;;;;;7379576;19;20188;-70
2022/11/08 11:21:13;;;;;;;0.30;0.30;;;;;;;;;;7375477;19;20121;-69
2022/11/08 11:23:44;;;;;;;0.20;0.20;;;;;;;;;;7374090;19;20570;-70
2022/11/08 11:26:27;;;;;;;0.30;0.30;;;;;;;;;;7376456;19;20131;-70
2022/11/08 11:29:04;;;;;;;0.45;0.45;;;;;;;;;;7375806;19;20541;-69
2022/11/08 11:31:38;;;;;;;0.22;0.22;;;;;;;;;;7377850;19;20124;-70
2022/11/08 11:34:16;;;;;;;0.30;0.30;;;;;;;;;;7379501;19;20105;-70
2022/11/08 11:36:43;;;;;;;0.20;0.20;;;;;;;;;;7367766;19;20144;-70
2022/11/08 11:39:30;;;;;;;0.30;0.30;;;;;;;;;;7370910;19;20137;-70
2022/11/08 11:42:08;;;;;;;0.30;0.30;;;;;;;;;;7379711;19;20555;-70
2022/11/08 11:45:04;;;;;;;0.30;0.30;;;;;;;;;;7382186;19;20152;-69
2022/11/08 11:47:36;;;;;;;0.30;0.30;;;;;;;;;;7382829;19;20125;-70
2022/11/08 11:50:23;;;;;;;0.30;0.30;;;;;;;;;;7381314;19;20583;-69
2022/11/08 11:52:48;;;;;;;0.30;0.30;;;;;;;;;;7385649;19;20101;-69
2022/11/08 11:55:15;;;;;;;0.30;0.30;;;;;;;;;;7369664;19;20128;-70
2022/11/08 11:57:59;;;;;;;0.30;0.30;;;;;;;;;;7377519;19;20125;-70
2022/11/08 12:00:24;;;;;;;0.30;0.30;;;;;;;;;;7381856;19;20113;-70
2022/11/08 12:03:04;;;;;;;0.63;0.63;;;;;;;;;;7377803;19;20137;-70
2022/11/08 12:05:41;;;;;;;0.30;0.30;;;;;;;;;;7384359;19;20160;-72
2022/11/08 12:08:06;;;;;;;0.40;0.40;;;;;;;;;;7379480;19;20459;-70
2022/11/08 12:11:16;;;;;;;0.30;0.30;;;;;;;;;;7393021;19;20113;-70
2022/11/08 12:13:45;;;;;;;0.30;0.30;;;;;;;;;;7387036;19;20109;-71
2022/11/08 12:16:20;;;;;;;0.30;0.30;;;;;;;;;;7388908;19;20132;-71
2022/11/08 12:18:56;;;;;;;0.40;0.40;;;;;;;;;;7385274;19;20097;-70
2022/11/08 12:21:34;;;;;;;0.30;0.30;;;;;;;;;;7381125;19;20184;-70
2022/11/08 12:24:12;;;;;;;0.30;0.30;;;;;;;;;;7384236;19;20479;-71
2022/11/08 12:26:43;;;;;;;0.30;0.30;;;;;;;;;;7381785;19;20157;-71
2022/11/08 12:29:24;;;;;;;0.30;0.30;;;;;;;;;;7388393;19;20587;-71
2022/11/08 12:32:03;;;;;;;0.30;0.30;;;;;;;;;;7388191;19;20128;-70
2022/11/08 12:34:34;;;;;;;0.30;0.30;;;;;;;;;;7390734;19;20102;-70
2022/11/08 12:37:17;;;;;;;8.20;0.73;;;;;;;;;;7388772;19;20157;-71
2022/11/08 12:39:47;;;;;;;0.30;0.30;;;;;;;;;;7391802;19;20105;-71
2022/11/08 12:42:36;;;;;;;0.30;0.30;;;;;;;;;;7390270;19;20116;-71
2022/11/08 12:45:28;;;;;;;0.30;0.30;;;;;;;;;;7388316;19;20129;-71
2022/11/08 12:48:12;;;;;;;0.30;0.30;;;;;;;;;;7391250;19;20128;-71
2022/11/08 12:50:50;;;;;;;0.30;0.30;;;;;;;;;;7392108;19;20140;-71
2022/11/08 12:53:24;;;;;;;0.30;0.30;;;;;;;;;;7387134;19;20479;-71
2022/11/08 12:55:52;;;;;;;0.30;0.30;;;;;;;;;;7391427;19;20128;-71
2022/11/08 12:58:27;;;;;;;0.30;0.30;;;;;;;;;;7391919;19;20165;-71
2022/11/08 13:00:56;;;;;;;0.30;0.30;;;;;;;;;;7389753;19;20112;-70
2022/11/08 13:03:21;;;;;;;0.30;0.30;;;;;;;;;;7389686;19;20146;-71
2022/11/08 13:05:57;;;;;;;0.30;0.30;;;;;;;;;;7390843;19;20126;-71
2022/11/08 13:08:28;;;;;;;0.20;0.20;;;;;;;;;;7389531;19;20120;-71
2022/11/08 13:11:04;;;;;;;0.30;0.30;;;;;;;;;;7389441;19;20109;-71
2022/11/08 13:13:49;;;;;;;0.30;0.30;;;;;;;;;;7390027;19;20121;-70
2022/11/08 13:16:20;;;;;;;0.30;0.30;;;;;;;;;;7388309;19;20204;-70
2022/11/08 13:18:53;;;;;;;0.20;0.20;;;;;;;;;;7389723;19;20188;-71
2022/11/08 13:21:24;;;;;;;0.30;0.30;;;;;;;;;;7390868;19;20116;-71
2022/11/08 13:23:49;;;;;;;0.30;0.30;;;;;;;;;;7390228;19;20133;-70
2022/11/08 13:26:25;;;;;;;0.30;0.30;;;;;;;;;;7384121;19;20125;-70
2022/11/08 13:28:51;;;;;;;0.30;0.30;;;;;;;;;;7389793;19;20188;-70
2022/11/08 13:31:35;;;;;;;0.30;0.30;;;;;;;;;;7382858;19;20105;-70
2022/11/08 13:34:16;;;;;;;0.20;0.20;;;;;;;;;;7391111;19;20132;-71
2022/11/08 13:36:46;;;;;;;0.20;0.20;;;;;;;;;;7387453;19;20186;-71
2022/11/08 13:39:36;;;;;;;0.30;0.30;;;;;;;;;;7383630;19;20140;-70
2022/11/08 13:42:24;;;;;;;0.30;0.30;;;;;;;;;;7382633;19;20121;-70
2022/11/08 13:44:59;;;;;;;0.30;0.30;;;;;;;;;;7385766;19;20667;-71
2022/11/08 13:47:30;;;;;;;0.30;0.30;;;;;;;;;;7387105;19;20611;-71
2022/11/08 13:50:26;;;;;;;0.30;0.30;;;;;;;;;;7390770;19;20629;-71
2022/11/08 13:53:10;;;;;;;0.30;0.30;;;;;;;;;;7390236;19;20117;-71
2022/11/08 13:55:41;;;;;;;0.30;0.30;;;;;;;;;;7380811;19;20128;-70
2022/11/08 13:58:31;;;;;;;0.73;0.73;;;;;;;;;;7385895;19;20132;-71
2022/11/08 14:00:57;;;;;;;0.20;0.20;;;;;;;;;;7386145;19;20504;-71
2022/11/08 14:03:32;;;;;;;0.20;0.20;;;;;;;;;;7378880;19;20101;-70
2022/11/08 14:06:03;;;;;;;0.30;0.30;;;;;;;;;;7380671;19;20564;-71
2022/11/08 14:08:51;;;;;;;0.28;0.28;;;;;;;;;;7382246;19;20180;-71
2022/11/08 14:11:19;;;;;;;0.30;0.30;;;;;;;;;;7379513;19;20125;-71
2022/11/08 14:13:56;;;;;;;0.30;0.30;;;;;;;;;;7379912;19;20181;-71
2022/11/08 14:16:27;;;;;;;0.28;0.28;;;;;;;;;;7383315;19;20139;-71
2022/11/08 14:18:52;;;;;;;0.30;0.30;;;;;;;;;;7383873;19;20302;-71
2022/11/08 14:21:19;;;;;;;0.30;0.30;;;;;;;;;;7380992;19;20177;-72
2022/11/08 14:23:47;;;;;;;0.30;0.30;;;;;;;;;;7379082;19;20132;-70
2022/11/08 14:26:19;;;;;;;0.30;0.30;;;;;;;;;;7377185;19;20132;-71
2022/11/08 14:28:45;;;;;;;0.30;0.30;;;;;;;;;;7379585;19;20138;-71
2022/11/08 14:31:24;;;;;;;0.30;0.30;;;;;;;;;;7379357;19;20137;-72
2022/11/08 14:33:50;;;;;;;0.20;0.20;;;;;;;;;;7384674;19;20121;-71
2022/11/08 14:36:17;;;;;;;0.30;0.30;;;;;;;;;;7378408;19;20129;-71
2022/11/08 14:39:02;;;;;;;0.30;0.30;;;;;;;;;;7380856;19;20567;-71
2022/11/08 14:41:28;;;;;;;0.30;0.30;;;;;;;;;;7383439;19;20455;-71
2022/11/08 14:43:56;;;;;;;0.30;0.30;;;;;;;;;;7383024;19;20124;-72
2022/11/08 14:46:29;;;;;;;0.30;0.30;;;;;;;;;;7382993;19;20146;-71
2022/11/08 14:48:55;;;;;;;0.30;0.30;;;;;;;;;;7384485;19;20116;-72
2022/11/08 14:51:21;;;;;;;0.20;0.20;;;;;;;;;;7384645;19;20246;-71
2022/11/08 14:53:49;;;;;;;0.93;0.85;;;;;;;;;;7383505;19;20117;-71
2022/11/08 14:56:19;;;;;;;0.20;0.20;;;;;;;;;;7382725;19;20169;-71
2022/11/08 14:58:45;;;;;;;0.30;0.30;;;;;;;;;;7384093;19;20136;-71
2022/11/08 15:01:11;;;;;;;0.30;0.30;;;;;;;;;;7385178;19;20102;-71
2022/11/08 15:03:37;;;;;;;0.30;0.30;;;;;;;;;;7383817;19;20140;-71
2022/11/08 15:06:06;;;;;;;0.20;0.20;;;;;;;;;;7382241;19;20117;-71
2022/11/08 15:08:33;;;;;;;0.20;0.20;;;;;;;;;;7383895;19;20109;-71
2022/11/08 15:11:07;;;;;;;0.20;0.20;;;;;;;;;;7384215;19;20106;-71
2022/11/08 15:13:38;;;;;;;0.30;0.30;;;;;;;;;;7384557;19;20453;-71
2022/11/08 15:16:05;;;;;;;0.30;0.30;;;;;;;;;;7381147;19;20156;-71